Time;durP1;ratioP1;P1;durP2;ratioP2;P2;SDS_P1;SDS_P2;PMS_P1;PMS_P2;Temp;Humidity;BMP_temperature;BMP_pressure;BME280_temperature;BME280_humidity;BME280_pressure;Samples;Min_cycle;Max_cycle;Signal;HPM_P1;HPM_P2
2022/01/09 00:00:37;;;;;;;12.23;6.73;;;4.30;99.90;;;;;;4975212;28;20104;-87
2022/01/09 00:03:03;;;;;;;14.37;7.17;;;5.10;99.90;;;;;;4975980;28;20061;-86
2022/01/09 00:05:30;;;;;;;13.30;7.10;;;3.20;99.90;;;;;;4975675;28;20043;-86
2022/01/09 00:07:56;;;;;;;13.23;6.80;;;3.30;99.90;;;;;;4975439;28;20072;-86
2022/01/09 00:10:22;;;;;;;13.60;7.27;;;3.40;99.90;;;;;;4975811;28;20489;-86
2022/01/09 00:12:58;;;;;;;16.07;7.47;;;3.30;99.90;;;;;;4975775;28;20046;-86
2022/01/09 00:15:30;;;;;;;13.07;7.10;;;3.20;99.90;;;;;;4975283;28;20046;-87
2022/01/09 00:17:55;;;;;;;12.63;7.20;;;3.20;99.90;;;;;;4977138;28;20386;-86
2022/01/09 00:20:21;;;;;;;12.83;7.23;;;3.20;99.90;;;;;;4975564;28;20112;-86
2022/01/09 00:22:49;;;;;;;12.87;7.27;;;3.40;99.90;;;;;;4976838;28;20490;-86
2022/01/09 00:25:20;;;;;;;11.63;6.67;;;3.20;99.90;;;;;;4978266;28;20042;-86
2022/01/09 00:27:46;;;;;;;13.13;6.77;;;3.30;99.90;;;;;;4993116;28;20097;-87
2022/01/09 00:30:15;;;;;;;12.77;7.30;;;3.40;99.90;;;;;;4974747;28;20042;-87
2022/01/09 00:32:41;;;;;;;12.97;7.27;;;3.40;99.90;;;;;;4975439;28;20073;-86
2022/01/09 00:35:08;;;;;;;13.47;7.93;;;3.40;99.90;;;;;;4975658;28;20054;-86
2022/01/09 00:37:34;;;;;;;11.60;6.70;;;3.40;99.90;;;;;;4993315;28;20043;-87
2022/01/09 00:39:59;;;;;;;12.57;6.73;;;3.40;99.90;;;;;;4975817;28;20466;-87
2022/01/09 00:42:25;;;;;;;12.83;7.30;;;3.40;99.90;;;;;;4974248;28;20042;-86
2022/01/09 00:44:51;;;;;;;11.80;6.37;;;3.40;99.90;;;;;;4975385;28;20054;-87
2022/01/09 00:47:19;;;;;;;12.77;7.00;;;3.30;99.90;;;;;;4975522;28;20038;-87
2022/01/09 00:49:51;;;;;;;13.30;7.43;;;3.30;99.90;;;;;;4978230;28;20111;-87
2022/01/09 00:52:29;;;;;;;14.77;7.67;;;4.40;99.90;;;;;;4979155;28;20441;-87
2022/01/09 00:54:54;;;;;;;13.00;7.17;;;4.10;99.90;;;;;;4979434;28;20440;-87
2022/01/09 00:57:20;;;;;;;13.33;7.20;;;3.20;99.90;;;;;;4978255;28;20046;-87
2022/01/09 00:59:45;;;;;;;12.27;6.77;;;3.30;99.90;;;;;;4979340;28;20050;-87
2022/01/09 01:02:11;;;;;;;12.97;7.03;;;3.40;99.90;;;;;;4979049;28;20405;-87
2022/01/09 01:04:40;;;;;;;12.87;7.03;;;3.30;99.90;;;;;;4978156;28;20042;-87
2022/01/09 01:07:09;;;;;;;13.20;7.40;;;3.40;99.90;;;;;;4978882;28;20042;-87
2022/01/09 01:09:34;;;;;;;14.67;8.27;;;2.70;99.90;;;;;;4978634;28;20047;-87
2022/01/09 01:12:01;;;;;;;11.90;6.73;;;3.30;99.90;;;;;;4977876;28;20042;-87
2022/01/09 01:14:27;;;;;;;13.23;7.60;;;3.20;99.90;;;;;;4978650;28;20046;-87
2022/01/09 01:16:59;;;;;;;13.07;7.63;;;3.40;99.90;;;;;;4978967;28;20050;-87
2022/01/09 01:19:25;;;;;;;12.87;7.47;;;3.30;99.90;;;;;;4977598;28;20493;-87
2022/01/09 01:21:50;;;;;;;13.33;7.13;;;3.40;99.90;;;;;;4979554;28;20046;-87
2022/01/09 01:24:21;;;;;;;13.30;7.10;;;3.30;99.90;;;;;;4977421;28;20050;-87
2022/01/09 01:26:46;;;;;;;14.43;7.43;;;4.00;99.90;;;;;;4978509;28;20058;-88
2022/01/09 01:29:21;;;;;;;14.00;7.67;;;2.80;99.90;;;;;;4978371;28;20046;-87
2022/01/09 01:31:47;;;;;;;12.70;7.30;;;3.10;99.90;;;;;;4982623;28;20145;-87
2022/01/09 01:34:16;;;;;;;14.03;8.13;;;3.20;99.90;;;;;;4974808;28;20550;-87
2022/01/09 01:36:48;;;;;;;14.43;7.93;;;3.50;99.90;;;;;;4976442;28;20172;-87
2022/01/09 01:39:20;;;;;;;14.50;7.60;;;3.10;99.90;;;;;;4974167;28;20106;-87
2022/01/09 01:41:46;;;;;;;13.83;8.17;;;3.20;99.90;;;;;;4975170;28;20404;-87
2022/01/09 01:44:15;;;;;;;15.10;8.40;;;3.20;99.90;;;;;;4974720;28;20050;-87
2022/01/09 01:46:47;;;;;;;15.30;8.33;;;4.40;99.90;;;;;;4974116;28;20038;-87
2022/01/09 01:49:18;;;;;;;15.47;8.23;;;4.30;99.90;;;;;;4974763;28;20078;-87
2022/01/09 01:51:47;;;;;;;15.43;8.60;;;3.10;99.90;;;;;;4974928;28;20045;-87
2022/01/09 01:54:13;;;;;;;17.83;9.23;;;3.50;99.90;;;;;;4990015;28;20383;-87
2022/01/09 01:56:42;;;;;;;20.03;9.23;;;3.70;99.90;;;;;;4974815;28;20045;-87
2022/01/09 01:59:14;;;;;;;16.90;9.67;;;4.20;99.90;;;;;;4975354;28;20043;-86
2022/01/09 02:01:40;;;;;;;19.27;10.03;;;;;;;;;;4975252;28;20047;-86
2022/01/09 02:04:15;;;;;;;17.57;9.90;;;3.40;99.90;;;;;;4975424;28;20046;-86
2022/01/09 02:06:46;;;;;;;15.77;9.30;;;2.90;99.90;;;;;;4989854;28;20110;-86
2022/01/09 02:09:18;;;;;;;19.80;10.33;;;3.00;99.90;;;;;;4974171;28;20054;-86
2022/01/09 02:11:56;;;;;;;21.27;11.23;;;3.10;99.90;;;;;;4974542;28;20053;-86
2022/01/09 02:14:22;;;;;;;20.87;11.10;;;4.00;99.90;;;;;;4972917;28;20046;-86
2022/01/09 02:16:57;;;;;;;20.20;10.67;;;3.20;99.90;;;;;;4974746;28;20050;-86
2022/01/09 02:19:32;;;;;;;19.77;11.03;;;3.20;99.90;;;;;;4973675;28;20039;-86
2022/01/09 02:22:07;;;;;;;21.80;12.00;;;3.10;99.90;;;;;;4973386;28;20487;-86
2022/01/09 02:24:32;;;;;;;25.23;13.90;;;3.90;99.90;;;;;;4974989;28;20435;-86
2022/01/09 02:27:16;;;;;;;21.93;12.33;;;3.20;99.90;;;;;;4975296;28;20482;-86
2022/01/09 02:29:54;;;;;;;;;;;3.40;99.90;;;;;;4973598;28;20473;-86
2022/01/09 02:32:26;;;;;;;23.37;12.23;;;3.70;99.90;;;;;;4977634;28;19929;-86
2022/01/09 02:34:52;;;;;;;26.13;13.73;;;3.90;99.90;;;;;;4976752;28;20076;-86
2022/01/09 02:37:26;;;;;;;27.47;14.77;;;4.80;99.90;;;;;;4977201;28;20478;-86
2022/01/09 02:39:58;;;;;;;25.33;14.27;;;3.60;99.90;;;;;;4981665;28;20058;-86
2022/01/09 02:42:34;;;;;;;26.27;16.30;;;3.70;99.90;;;;;;4976003;28;20046;-86
2022/01/09 02:45:06;;;;;;;33.27;16.20;;;3.40;99.90;;;;;;4977531;28;20117;-86
2022/01/09 02:47:40;;;;;;;28.17;16.27;;;3.30;99.90;;;;;;4994272;28;20081;-86
2022/01/09 02:52:57;;;;;;;33.28;17.85;;;3.30;99.90;;;;;;4994785;28;20050;-86
2022/01/09 02:55:39;;;;;;;33.67;18.60;;;3.40;99.90;;;;;;4976951;28;20046;-87
2022/01/09 02:58:14;;;;;;;28.03;16.57;;;4.50;99.90;;;;;;4977296;28;20042;-87
2022/01/09 03:00:48;;;;;;;30.73;17.83;;;5.00;99.90;;;;;;4976489;28;20058;-87
2022/01/09 03:03:14;;;;;;;36.20;19.80;;;5.00;99.90;;;;;;4974849;28;20046;-87
2022/01/09 03:05:49;;;;;;;35.70;19.90;;;3.40;99.90;;;;;;4992909;28;20038;-87
2022/01/09 03:08:18;;;;;;;33.50;18.27;;;3.80;99.90;;;;;;4975196;28;20061;-87
2022/01/09 03:10:44;;;;;;;33.23;18.60;;;3.00;99.90;;;;;;4976145;28;20042;-87
2022/01/09 03:13:10;;;;;;;33.63;18.77;;;3.50;99.90;;;;;;4975580;28;20446;-87
2022/01/09 03:15:45;;;;;;;36.33;19.23;;;3.50;99.90;;;;;;4976242;28;20054;-87
2022/01/09 03:18:12;;;;;;;37.97;19.63;;;3.60;99.90;;;;;;4975904;28;20038;-87
2022/01/09 03:20:38;;;;;;;36.77;18.30;;;4.90;99.90;;;;;;4976742;28;20096;-87
2022/01/09 03:23:04;;;;;;;38.97;18.73;;;3.20;99.90;;;;;;4976221;28;20560;-87
2022/01/09 03:25:30;;;;;;;35.60;18.67;;;3.60;99.90;;;;;;4975256;28;20046;-87
2022/01/09 03:27:57;;;;;;;34.47;17.77;;;3.80;99.90;;;;;;4977534;28;20050;-87
2022/01/09 03:30:40;;;;;;;36.70;18.37;;;3.50;99.90;;;;;;5013926;23;20110;-87
2022/01/09 03:33:06;;;;;;;42.60;18.70;;;4.20;99.90;;;;;;4972386;28;20562;-87
2022/01/09 03:35:35;;;;;;;35.90;16.70;;;3.40;99.90;;;;;;5005226;23;20054;-87
2022/01/09 03:38:00;;;;;;;29.07;13.83;;;4.70;99.90;;;;;;4991734;28;20046;-87
2022/01/09 03:40:35;;;;;;;27.80;13.50;;;3.70;99.90;;;;;;4991580;28;20053;-87
2022/01/09 03:43:01;;;;;;;26.13;13.27;;;4.30;99.90;;;;;;4993077;28;20097;-87
2022/01/09 03:45:27;;;;;;;30.10;13.13;;;3.80;99.90;;;;;;4992386;28;20050;-87
2022/01/09 03:48:01;;;;;;;27.10;12.73;;;3.90;99.90;;;;;;4999448;28;20405;-88
2022/01/09 03:50:39;;;;;;;28.70;13.57;;;4.00;99.90;;;;;;4992073;28;20053;-87
2022/01/09 03:53:11;;;;;;;28.33;12.80;;;4.50;99.90;;;;;;5031448;23;20188;-87
2022/01/09 03:55:45;;;;;;;28.03;12.63;;;3.70;99.90;;;;;;4993569;28;20104;-87
2022/01/09 03:58:19;;;;;;;29.13;12.45;;;5.40;99.90;;;;;;4993646;28;20046;-87
2022/01/09 04:00:50;;;;;;;;;;;3.90;99.90;;;;;;4991904;28;20379;-87
2022/01/09 04:03:19;;;;;;;27.23;11.53;;;5.40;99.90;;;;;;4993605;28;19922;-87
2022/01/09 04:05:48;;;;;;;28.83;11.17;;;5.20;99.90;;;;;;4992787;28;20482;-87
2022/01/09 04:08:13;;;;;;;26.57;10.70;;;4.70;99.90;;;;;;4991355;28;20042;-87
2022/01/09 04:10:45;;;;;;;26.57;11.37;;;4.00;99.90;;;;;;4992095;28;20453;-87
2022/01/09 04:13:20;;;;;;;25.27;10.97;;;6.10;99.90;;;;;;4991314;28;20133;-88
2022/01/09 04:15:47;;;;;;;24.47;8.37;;;5.10;99.90;;;;;;4992486;28;20046;-88
2022/01/09 04:18:17;;;;;;;37.40;8.77;;;5.30;99.90;;;;;;4992694;28;20402;-86
2022/01/09 04:20:51;;;;;;;26.60;7.23;;;6.30;99.90;;;;;;5031412;23;20054;-87
2022/01/09 04:23:19;;;;;;;29.17;9.48;;;4.40;99.90;;;;;;4993281;28;20104;-87
2022/01/09 04:25:51;;;;;;;24.20;8.23;;;5.50;99.90;;;;;;4995946;28;20107;-87
2022/01/09 04:28:18;;;;;;;25.00;9.00;;;4.50;99.90;;;;;;4996033;28;20080;-87
2022/01/09 04:30:46;;;;;;;26.50;9.07;;;4.60;99.90;;;;;;5010657;23;20050;-87
2022/01/09 04:34:03;;;;;;;26.10;8.70;;;4.80;99.90;;;;;;5014159;28;20062;-87
2022/01/09 04:36:28;;;;;;;28.43;7.83;;;4.90;99.90;;;;;;4998683;28;20436;-87
2022/01/09 04:38:57;;;;;;;32.33;7.87;;;5.10;99.90;;;;;;4998991;28;20042;-87
2022/01/09 04:41:28;;;;;;;34.23;6.47;;;4.70;99.90;;;;;;4998109;28;20118;-87
2022/01/09 04:43:54;;;;;;;39.87;6.23;;;5.60;99.90;;;;;;4999032;28;20049;-88
2022/01/09 04:46:42;;;;;;;35.23;6.90;;;4.70;99.90;;;;;;4998972;28;20397;-87
2022/01/09 04:49:32;;;;;;;48.00;6.23;;;4.50;99.90;;;;;;5015898;28;20046;-87
2022/01/09 04:51:58;;;;;;;33.50;5.37;;;5.40;99.90;;;;;;4998791;28;20128;-87
2022/01/09 04:54:23;;;;;;;34.93;5.77;;;5.10;99.90;;;;;;4999528;28;20137;-87
2022/01/09 04:56:49;;;;;;;37.87;5.63;;;5.20;99.90;;;;;;5025974;23;20086;-87
2022/01/09 04:59:15;;;;;;;27.10;5.07;;;5.20;99.90;;;;;;4998587;28;20050;-87
2022/01/09 05:01:49;;;;;;;27.37;5.40;;;5.20;99.90;;;;;;4997133;28;20080;-87
2022/01/09 05:04:15;;;;;;;34.73;5.97;;;6.20;99.90;;;;;;4994223;28;20096;-87
2022/01/09 05:06:43;;;;;;;31.27;7.63;;;6.40;99.90;;;;;;4997790;28;20049;-87
2022/01/09 05:09:19;;;;;;;43.00;8.43;;;5.90;99.90;;;;;;4997986;28;20562;-87
2022/01/09 05:11:44;;;;;;;26.83;5.63;;;5.50;99.90;;;;;;4989798;23;20158;-87
2022/01/09 05:14:10;;;;;;;29.33;4.90;;;6.80;99.90;;;;;;4978439;28;20141;-87
2022/01/09 05:16:37;;;;;;;28.20;5.97;;;5.40;99.90;;;;;;4995061;28;20041;-87
2022/01/09 05:19:06;;;;;;;35.40;7.37;;;4.90;99.90;;;;;;4978990;28;20069;-87
2022/01/09 05:21:32;;;;;;;38.27;7.30;;;6.40;99.90;;;;;;4995479;28;20054;-87
2022/01/09 05:23:59;;;;;;;33.17;5.03;;;5.30;99.90;;;;;;4977591;28;20081;-87
2022/01/09 05:26:25;;;;;;;30.23;4.87;;;5.20;99.90;;;;;;4995593;23;20291;-88
2022/01/09 05:28:53;;;;;;;27.70;6.97;;;5.90;99.90;;;;;;5014381;28;20045;-87
2022/01/09 05:31:30;;;;;;;26.73;5.83;;;5.30;99.90;;;;;;4996925;28;20042;-87
2022/01/09 05:33:56;;;;;;;27.97;4.90;;;6.30;99.90;;;;;;5022951;23;20045;-87
2022/01/09 05:36:37;;;;;;;30.10;4.50;;;5.20;99.90;;;;;;4996638;28;20050;-87
2022/01/09 05:39:08;;;;;;;33.03;7.13;;;5.20;99.90;;;;;;4998239;28;20500;-87
2022/01/09 05:41:42;;;;;;;29.30;4.93;;;6.50;99.90;;;;;;4997971;28;20092;-87
2022/01/09 05:44:08;;;;;;;26.70;5.27;;;5.00;99.90;;;;;;4997833;28;20038;-87
2022/01/09 05:46:36;;;;;;;34.60;9.10;;;5.30;99.90;;;;;;4996890;28;20405;-87
2022/01/09 05:49:05;;;;;;;23.47;4.23;;;5.80;99.90;;;;;;4998059;28;20132;-87
2022/01/09 05:51:39;;;;;;;30.80;6.37;;;5.20;99.90;;;;;;5013731;28;20057;-88
2022/01/09 05:54:11;;;;;;;22.67;4.17;;;5.30;99.90;;;;;;4997405;28;20450;-87
2022/01/09 05:56:40;;;;;;;29.03;6.37;;;3.90;99.90;;;;;;4997781;28;20504;-87
2022/01/09 05:59:11;;;;;;;20.63;4.37;;;6.60;99.90;;;;;;4996431;28;20121;-87
2022/01/09 06:01:43;;;;;;;30.07;5.57;;;5.00;99.90;;;;;;4997419;28;20050;-87
2022/01/09 06:04:14;;;;;;;21.53;4.50;;;6.20;99.90;;;;;;5002260;28;20050;-89
2022/01/09 06:06:46;;;;;;;25.20;3.70;;;4.30;99.90;;;;;;4997607;28;20478;-87
2022/01/09 06:09:17;;;;;;;29.00;5.97;;;5.00;99.90;;;;;;4997109;28;20049;-87
2022/01/09 06:11:55;;;;;;;22.13;3.70;;;6.30;99.90;;;;;;4996975;28;20049;-87
2022/01/09 06:14:20;;;;;;;23.83;5.07;;;4.80;99.90;;;;;;5013968;28;20038;-87
2022/01/09 06:16:58;;;;;;;22.23;3.70;;;5.30;99.90;;;;;;4997546;28;20469;-87
2022/01/09 06:19:24;;;;;;;23.07;4.83;;;5.20;99.90;;;;;;4996862;28;20053;-87
2022/01/09 06:21:49;;;;;;;28.50;4.73;;;5.80;99.90;;;;;;4995990;28;20046;-87
2022/01/09 06:24:21;;;;;;;34.17;7.97;;;6.10;99.90;;;;;;4996648;28;20053;-87
2022/01/09 06:26:49;;;;;;;40.90;12.77;;;5.20;99.90;;;;;;4995663;28;20050;-87
2022/01/09 06:29:21;;;;;;;29.83;7.60;;;4.80;99.90;;;;;;4996670;28;20049;-87
2022/01/09 06:31:56;;;;;;;24.37;5.63;;;4.50;99.90;;;;;;4997222;28;20132;-87
2022/01/09 06:34:22;;;;;;;32.07;7.07;;;5.20;99.90;;;;;;4995812;28;20066;-87
2022/01/09 06:36:50;;;;;;;31.57;10.30;;;4.70;99.90;;;;;;4996982;28;20107;-88
2022/01/09 06:39:19;;;;;;;31.27;6.63;;;5.80;99.90;;;;;;5013918;28;20126;-87
2022/01/09 06:41:44;;;;;;;31.27;9.13;;;5.70;99.90;;;;;;5013414;28;20050;-87
2022/01/09 06:44:10;;;;;;;30.47;9.07;;;4.60;99.90;;;;;;4996831;28;20053;-87
2022/01/09 06:46:43;;;;;;;26.47;8.13;;;6.20;99.90;;;;;;4995706;28;20041;-87
2022/01/09 06:49:12;;;;;;;20.00;3.63;;;6.20;99.90;;;;;;4996464;28;20050;-87
2022/01/09 06:51:40;;;;;;;36.47;10.90;;;6.70;99.90;;;;;;5003332;23;20319;-87
2022/01/09 06:54:19;;;;;;;34.57;10.67;;;6.10;99.90;;;;;;4996285;28;20037;-87
2022/01/09 06:56:48;;;;;;;38.10;10.67;;;4.80;99.90;;;;;;4996259;28;20480;-87
2022/01/09 06:59:23;;;;;;;32.23;9.03;;;6.00;99.90;;;;;;4995997;28;20136;-87
2022/01/09 07:01:48;;;;;;;25.23;7.57;;;4.80;99.90;;;;;;4995467;28;20413;-89
2022/01/09 07:04:17;;;;;;;22.23;4.40;;;5.30;99.90;;;;;;5019533;23;20457;-87
2022/01/09 07:06:42;;;;;;;21.10;3.50;;;4.60;99.90;;;;;;5012357;28;20124;-86
2022/01/09 07:09:08;;;;;;;23.17;3.70;;;4.80;99.90;;;;;;4995575;28;20104;-87
2022/01/09 07:11:37;;;;;;;23.07;4.87;;;4.70;99.90;;;;;;4995744;28;20045;-87
2022/01/09 07:14:03;;;;;;;18.73;4.10;;;4.70;99.90;;;;;;4999532;28;20045;-87
2022/01/09 07:16:31;;;;;;;20.07;6.23;;;4.90;99.90;;;;;;4995263;28;20049;-87
2022/01/09 07:19:00;;;;;;;20.17;4.13;;;5.40;99.90;;;;;;4996268;28;20097;-87
2022/01/09 07:21:32;;;;;;;23.43;5.20;;;5.20;99.90;;;;;;4995718;28;20107;-87
2022/01/09 07:24:03;;;;;;;20.30;5.17;;;6.00;99.90;;;;;;5012987;28;20056;-87
2022/01/09 07:26:31;;;;;;;30.30;10.40;;;4.30;99.90;;;;;;4995837;28;20400;-87
2022/01/09 07:29:03;;;;;;;37.33;14.17;;;4.40;99.90;;;;;;4995197;28;20072;-87
2022/01/09 07:31:32;;;;;;;21.17;4.73;;;4.30;99.90;;;;;;5012511;28;20054;-88
2022/01/09 07:33:58;;;;;;;23.30;7.23;;;4.50;99.90;;;;;;4995754;28;20045;-87
2022/01/09 07:36:39;;;;;;;15.97;4.17;;;4.40;99.90;;;;;;4995472;28;20131;-87
2022/01/09 07:39:17;;;;;;;;;;;4.50;99.90;;;;;;4995682;28;20046;-87
2022/01/09 07:41:43;;;;;;;25.37;5.53;;;4.60;99.90;;;;;;4995733;28;19975;-88
2022/01/09 07:44:16;;;;;;;16.80;4.00;;;3.60;99.90;;;;;;5012334;28;20045;-88
2022/01/09 07:49:23;;;;;;;19.37;4.33;;;4.60;99.90;;;;;;5035424;23;20052;-92
2022/01/09 08:10:37;;;;;;;14.30;2.57;;;4.50;99.90;;;;;;5135085;23;20048;-93
2022/01/09 08:13:02;;;;;;;20.27;6.07;;;4.60;99.90;;;;;;4901999;29;20484;-93
2022/01/09 08:15:28;;;;;;;12.03;2.67;;;4.90;99.90;;;;;;4900977;29;20127;-90
2022/01/09 08:17:57;;;;;;;18.77;4.57;;;4.20;99.90;;;;;;4901128;29;20048;-90
2022/01/09 08:20:23;;;;;;;11.97;2.43;;;4.30;99.90;;;;;;4903688;29;20044;-90
2022/01/09 08:22:51;;;;;;;15.87;3.33;;;4.30;99.90;;;;;;4909012;29;20118;-90
2022/01/09 08:25:28;;;;;;;14.30;2.40;;;5.10;99.90;;;;;;4900348;29;20059;-91
2022/01/09 08:27:56;;;;;;;18.60;5.47;;;5.40;99.90;;;;;;4899561;29;20048;-91
2022/01/09 08:30:30;;;;;;;13.60;3.37;;;4.20;99.90;;;;;;4899580;29;20419;-90
2022/01/09 08:33:05;;;;;;;14.63;2.87;;;4.40;99.90;;;;;;4901125;29;20054;-90
2022/01/09 08:35:48;;;;;;;14.13;3.83;;;4.10;99.90;;;;;;4899605;29;20134;-91
2022/01/09 08:38:26;;;;;;;12.97;2.90;;;5.50;99.90;;;;;;4883678;29;20084;-88
2022/01/09 08:40:58;;;;;;;17.83;4.67;;;4.60;99.90;;;;;;4894985;29;20492;-90
2022/01/09 08:43:31;;;;;;;19.83;5.20;;;5.10;99.90;;;;;;4904438;29;20048;-90
2022/01/09 08:46:00;;;;;;;13.27;3.03;;;5.80;99.90;;;;;;4905643;29;20040;-91
2022/01/09 08:48:26;;;;;;;15.07;3.47;;;4.70;99.90;;;;;;4899639;29;20040;-90
2022/01/09 08:50:51;;;;;;;13.23;2.80;;;4.70;99.90;;;;;;4900352;29;20048;-91
2022/01/09 08:53:50;;;;;;;15.40;3.17;;;4.20;99.90;;;;;;4901494;29;20502;-90
2022/01/09 08:56:29;;;;;;;15.40;3.97;;;6.10;99.90;;;;;;4899134;29;20044;-91
2022/01/09 08:59:13;;;;;;;16.27;4.23;;;4.30;99.90;;;;;;4900695;29;20079;-90
2022/01/09 09:12:12;;;;;;;15.05;3.45;;;3.80;99.90;;;;;;4900335;29;20084;-89
2022/01/09 09:14:53;;;;;;;16.27;2.97;;;4.60;99.90;;;;;;4903070;29;20127;-89
2022/01/09 09:17:18;;;;;;;19.83;8.40;;;4.30;99.90;;;;;;4894470;29;20472;-91
2022/01/09 09:19:44;;;;;;;20.80;7.90;;;5.10;99.90;;;;;;4894122;29;20052;-90
2022/01/09 09:22:12;;;;;;;13.40;4.13;;;5.00;99.90;;;;;;4886245;29;20389;-90
2022/01/09 09:24:40;;;;;;;15.73;3.57;;;3.80;99.90;;;;;;4883512;29;20044;-91
2022/01/09 09:27:32;;;;;;;21.20;5.47;;;4.70;99.90;;;;;;4895355;23;20143;-92
2022/01/09 09:30:00;;;;;;;16.10;3.63;;;4.60;99.90;;;;;;4914138;23;20052;-89
2022/01/09 09:32:25;;;;;;;15.20;3.00;;;4.50;99.90;;;;;;4893408;29;20468;-89
2022/01/09 09:34:51;;;;;;;17.43;8.53;;;6.10;99.90;;;;;;4900535;23;20053;-89
2022/01/09 09:37:29;;;;;;;14.83;4.50;;;4.60;99.90;;;;;;4903647;23;20061;-89
2022/01/09 09:39:55;;;;;;;12.43;3.20;;;5.90;99.90;;;;;;4893990;29;20041;-88
2022/01/09 09:42:24;;;;;;;17.67;7.43;;;4.40;99.90;;;;;;4893745;29;20099;-87
2022/01/09 09:45:00;;;;;;;18.53;5.53;;;4.50;99.90;;;;;;4894838;29;20519;-87
2022/01/09 09:47:27;;;;;;;20.63;11.37;;;6.40;99.90;;;;;;4895635;29;20080;-89
2022/01/09 09:50:36;;;;;;;18.33;4.60;;;4.60;99.90;;;;;;4899080;29;20096;-88
2022/01/09 09:53:02;;;;;;;19.97;9.27;;;5.80;99.90;;;;;;4898506;23;20488;-89
2022/01/09 09:55:31;;;;;;;24.80;12.13;;;5.10;99.90;;;;;;4917650;29;20063;-93
2022/01/09 09:57:58;;;;;;;20.93;7.80;;;4.80;99.90;;;;;;4900929;29;20048;-89
2022/01/09 10:00:25;;;;;;;17.33;5.47;;;5.20;99.90;;;;;;4902051;29;20040;-89
2022/01/09 10:03:15;;;;;;;18.63;5.40;;;5.90;99.90;;;;;;4902089;29;20399;-93
2022/01/09 10:06:02;;;;;;;14.60;4.30;;;5.10;99.90;;;;;;4901341;29;20048;-89
2022/01/09 10:08:36;;;;;;;14.45;3.50;;;4.60;99.90;;;;;;4902335;29;20102;-88
2022/01/09 10:11:16;;;;;;;14.47;3.37;;;4.20;99.90;;;;;;4901345;29;20048;-88
2022/01/09 10:13:42;;;;;;;12.77;2.93;;;4.90;99.90;;;;;;4900937;29;20436;-88
2022/01/09 10:16:15;;;;;;;13.77;3.23;;;4.00;99.90;;;;;;4901686;29;20396;-88
2022/01/09 10:19:09;;;;;;;13.10;3.90;;;5.10;99.90;;;;;;4901170;29;20056;-90
2022/01/09 10:21:34;;;;;;;17.15;3.75;;;5.10;99.90;;;;;;4900899;29;20058;-88
2022/01/09 10:24:11;;;;;;;14.90;3.10;;;4.50;99.90;;;;;;4901569;29;20492;-90
2022/01/09 10:29:49;;;;;;;15.23;3.83;;;5.20;99.90;;;;;;4956316;23;20552;-91
2022/01/09 10:33:18;;;;;;;12.17;3.03;;;4.70;99.90;;;;;;4915294;29;20040;-93
2022/01/09 10:35:46;;;;;;;25.20;12.50;;;4.40;99.90;;;;;;4898571;29;20056;-89
2022/01/09 10:38:30;;;;;;;12.93;4.73;;;5.10;99.90;;;;;;4900788;29;20051;-91
2022/01/09 10:41:23;;;;;;;16.73;3.50;;;5.20;99.90;;;;;;4902676;29;20048;-89
2022/01/09 10:43:59;;;;;;;14.43;4.03;;;6.30;99.90;;;;;;4873319;29;20048;-91
2022/01/09 10:46:31;;;;;;;14.23;3.90;;;5.60;99.90;;;;;;4900268;29;20396;-92
2022/01/09 10:49:03;;;;;;;13.03;3.77;;;6.20;99.90;;;;;;4900691;29;20492;-93
2022/01/09 10:51:31;;;;;;;15.57;4.10;;;5.90;99.90;;;;;;4896028;29;20060;-88
2022/01/09 10:56:38;;;;;;;14.93;4.23;;;5.20;99.90;;;;;;4928196;23;20067;-93
2022/01/09 10:59:06;;;;;;;18.90;3.60;;;4.80;99.90;;;;;;4898885;29;20087;-93
2022/01/09 11:01:44;;;;;;;12.50;3.30;;;6.60;99.90;;;;;;4900306;29;20056;-92
2022/01/09 11:04:10;;;;;;;14.40;3.33;;;4.80;99.90;;;;;;4900737;29;20051;-90
2022/01/09 11:06:43;;;;;;;14.73;5.90;;;5.20;99.90;;;;;;4900112;29;20107;-86
2022/01/09 11:10:05;;;;;;;17.87;3.97;;;5.00;99.90;;;;;;4902066;23;20052;-87
2022/01/09 11:12:35;;;;;;;16.30;3.90;;;6.40;99.90;;;;;;4884791;29;20048;-91
2022/01/09 11:15:23;;;;;;;12.73;3.07;;;5.40;99.90;;;;;;4900252;23;20048;-90
2022/01/09 11:18:45;;;;;;;12.73;2.87;;;5.40;99.90;;;;;;4909742;23;20038;-94
2022/01/09 11:25:02;;;;;;;11.40;2.83;;;6.40;99.90;;;;;;4933752;23;20115;-91
2022/01/09 11:30:26;;;;;;;10.87;2.80;;;5.70;99.90;;;;;;4917125;23;20100;-89
2022/01/09 11:33:33;;;;;;;11.83;3.00;;;5.60;99.90;;;;;;4911350;29;20055;-92
2022/01/09 11:36:10;;;;;;;10.57;2.87;;;7.00;99.90;;;;;;4892534;29;20059;-91
2022/01/09 11:38:48;;;;;;;11.80;2.57;;;6.00;99.90;;;;;;4888261;29;20079;-92
2022/01/09 11:41:24;;;;;;;11.33;3.00;;;5.10;99.90;;;;;;4891754;29;20068;-91
2022/01/09 11:43:54;;;;;;;12.93;2.47;;;5.00;99.90;;;;;;4895914;29;20040;-92
2022/01/09 11:46:25;;;;;;;14.27;2.87;;;5.70;99.90;;;;;;4896671;29;20045;-92
2022/01/09 11:48:53;;;;;;;13.23;2.50;;;7.40;99.90;;;;;;4903750;29;20072;-91
2022/01/09 11:51:26;;;;;;;14.83;2.63;;;5.40;99.90;;;;;;4892937;29;20079;-91
2022/01/09 11:54:05;;;;;;;13.18;3.50;;;6.20;99.90;;;;;;4889996;29;20059;-91
2022/01/09 11:59:56;;;;;;;16.67;2.90;;;6.10;99.90;;;;;;4892544;29;20048;-90
2022/01/09 12:02:28;;;;;;;13.87;2.80;;;6.20;99.90;;;;;;4887410;29;20044;-90
2022/01/09 12:05:06;;;;;;;14.33;3.00;;;6.80;99.90;;;;;;4895006;29;20377;-91
2022/01/09 12:07:48;;;;;;;18.60;3.37;;;6.30;99.90;;;;;;4897411;29;20055;-91
2022/01/09 12:10:25;;;;;;;13.80;3.20;;;6.40;99.90;;;;;;4899389;29;20412;-90
2022/01/09 12:13:06;;;;;;;16.20;3.27;;;6.30;99.90;;;;;;4898522;29;20404;-91
2022/01/09 12:15:50;;;;;;;15.63;3.17;;;6.30;99.90;;;;;;4899573;29;20056;-92
2022/01/09 12:18:53;;;;;;;15.93;3.17;;;6.00;99.90;;;;;;4899500;29;20090;-90
2022/01/09 12:27:41;;;;;;;16.37;3.97;;;5.20;99.90;;;;;;4965970;23;20055;-92
2022/01/09 12:30:43;;;;;;;15.40;3.63;;;6.00;99.90;;;;;;4899748;29;20056;-92
2022/01/09 12:36:26;;;;;;;13.33;3.23;;;5.80;99.90;;;;;;4899612;29;20052;-91
2022/01/09 12:39:05;;;;;;;16.40;3.13;;;7.00;99.90;;;;;;4900209;29;20516;-91
2022/01/09 12:41:39;;;;;;;14.83;3.10;;;6.50;99.90;;;;;;4898621;29;20056;-91
2022/01/09 12:44:08;;;;;;;;;;;6.30;99.90;;;;;;4901084;29;20131;-91
2022/01/09 12:46:48;;;;;;;17.43;3.00;;;6.10;99.90;;;;;;4902356;29;19923;-91
2022/01/09 12:49:19;;;;;;;16.57;3.40;;;6.40;99.90;;;;;;4903024;29;20048;-90
2022/01/09 12:51:53;;;;;;;13.60;2.90;;;6.20;99.90;;;;;;4942670;23;20424;-91
2022/01/09 12:54:19;;;;;;;12.77;2.97;;;6.00;99.90;;;;;;4901966;29;20143;-91
2022/01/09 12:59:22;;;;;;;17.37;3.10;;;6.40;99.90;;;;;;4927951;23;20059;-91
2022/01/09 13:01:54;;;;;;;15.37;3.10;;;6.00;99.90;;;;;;4902493;29;20056;-90
2022/01/09 13:04:26;;;;;;;15.90;3.20;;;6.30;99.90;;;;;;4903818;29;20092;-92
2022/01/09 13:06:58;;;;;;;17.97;3.20;;;7.40;99.90;;;;;;4903374;29;20131;-91
2022/01/09 13:09:31;;;;;;;13.90;3.17;;;6.90;99.90;;;;;;4902567;29;20056;-91
2022/01/09 13:12:03;;;;;;;16.63;3.40;;;7.80;99.90;;;;;;4902967;29;20507;-90
2022/01/09 13:14:29;;;;;;;18.27;2.67;;;6.70;99.90;;;;;;4902383;29;20051;-90
2022/01/09 13:17:20;;;;;;;12.83;3.10;;;7.90;99.90;;;;;;4902514;29;20186;-91
2022/01/09 13:19:49;;;;;;;15.40;3.00;;;7.40;99.90;;;;;;4909239;23;20040;-90
2022/01/09 13:22:21;;;;;;;14.53;3.10;;;7.50;99.90;;;;;;4917558;29;20059;-91
2022/01/09 13:24:47;;;;;;;13.97;3.63;;;7.90;99.90;;;;;;4902415;29;20051;-89
2022/01/09 13:27:18;;;;;;;18.37;2.80;;;7.10;99.90;;;;;;4901641;29;20041;-90
2022/01/09 13:30:06;;;;;;;11.53;2.37;;;8.10;99.90;;;;;;4901576;29;20415;-90
2022/01/09 13:32:41;;;;;;;13.97;2.30;;;6.30;99.90;;;;;;4901727;29;20056;-91
2022/01/09 13:35:16;;;;;;;12.47;2.60;;;7.00;99.90;;;;;;4902568;29;20477;-91
2022/01/09 13:40:31;;;;;;;12.73;2.33;;;7.10;99.90;;;;;;4938413;23;20059;-90
2022/01/09 13:43:01;;;;;;;9.52;2.00;;;7.40;99.90;;;;;;4901836;29;20040;-90
2022/01/09 13:45:35;;;;;;;11.57;2.70;;;7.10;99.90;;;;;;4901357;29;20059;-90
2022/01/09 13:48:00;;;;;;;9.73;2.10;;;6.20;99.90;;;;;;4908249;23;20558;-91
2022/01/09 13:50:50;;;;;;;10.90;2.27;;;6.60;99.90;;;;;;4901027;29;20052;-89
2022/01/09 13:53:24;;;;;;;10.53;2.13;;;6.90;99.90;;;;;;4900118;29;20044;-89
2022/01/09 13:55:50;;;;;;;10.90;2.13;;;5.90;99.90;;;;;;4901780;29;20087;-87
2022/01/09 13:58:33;;;;;;;8.23;2.07;;;5.50;99.90;;;;;;4901352;29;20091;-94
2022/01/09 14:00:59;;;;;;;9.38;2.40;;;6.30;99.90;;;;;;4901334;29;20091;-91
2022/01/09 14:03:27;;;;;;;11.70;2.00;;;5.90;99.90;;;;;;4890021;29;20096;-92
2022/01/09 14:05:53;;;;;;;9.43;2.30;;;5.60;99.90;;;;;;4890124;29;20388;-93
2022/01/09 14:08:54;;;;;;;9.93;2.30;;;5.50;99.90;;;;;;4901046;29;20075;-91
2022/01/09 14:11:23;;;;;;;10.47;2.20;;;7.30;99.90;;;;;;4887224;29;20044;-88
2022/01/09 14:13:49;;;;;;;13.40;2.23;;;6.60;99.90;;;;;;4889422;29;20510;-91
2022/01/09 14:16:20;;;;;;;10.63;2.50;;;6.30;99.90;;;;;;4887576;29;20049;-87